createdAt,value
2023-05-23T00:01:03.594Z,75.84
2023-05-23T00:03:49.418Z,76.35
2023-05-23T00:06:35.241Z,77.55
2023-05-23T00:09:21.566Z,78.56
2023-05-23T00:12:07.475Z,78.27
2023-05-23T00:14:52.930Z,79.10
2023-05-23T00:17:38.899Z,79.01
2023-05-23T00:20:24.258Z,79.70
2023-05-23T00:23:10.941Z,79.90
2023-05-23T00:25:56.310Z,80.55
2023-05-23T00:28:42.264Z,80.56
2023-05-23T00:31:28.165Z,80.68
2023-05-23T00:34:16.920Z,80.57
2023-05-23T00:37:02.683Z,81.20
2023-05-23T00:39:49.199Z,82.66
2023-05-23T00:42:34.816Z,82.51
2023-05-23T00:45:20.939Z,82.13
2023-05-23T00:48:07.763Z,81.77
2023-05-23T00:50:54.320Z,81.26
2023-05-23T00:53:40.004Z,80.84
2023-05-23T00:56:25.790Z,80.53
2023-05-23T00:59:12.213Z,80.98
2023-05-23T01:02:00.899Z,81.41
2023-05-23T01:04:46.705Z,81.28
2023-05-23T01:07:32.082Z,81.41
2023-05-23T01:10:21.376Z,82.62
2023-05-23T01:13:07.042Z,82.04
2023-05-23T01:16:11.138Z,81.37
2023-05-23T01:19:03.667Z,80.81
2023-05-23T01:21:54.054Z,80.24
2023-05-23T01:24:54.403Z,79.25
2023-05-23T01:27:54.945Z,79.89
2023-05-23T01:30:42.076Z,78.91
2023-05-23T01:33:28.753Z,78.88
2023-05-23T01:36:14.602Z,78.82
2023-05-23T01:38:59.732Z,79.37
2023-05-23T01:41:46.704Z,79.30
2023-05-23T01:44:34.663Z,79.44
2023-05-23T01:47:22.050Z,79.18
2023-05-23T01:50:09.034Z,79.52
2023-05-23T01:52:55.506Z,78.85
2023-05-23T01:55:42.419Z,79.22
2023-05-23T01:58:27.692Z,78.89
2023-05-23T02:01:13.986Z,78.06
2023-05-23T02:03:59.530Z,78.82
2023-05-23T02:06:45.061Z,78.62
2023-05-23T02:09:31.787Z,77.92
2023-05-23T02:12:17.471Z,78.12
2023-05-23T02:15:03.449Z,78.35
2023-05-23T02:17:49.341Z,78.38
2023-05-23T02:20:34.828Z,77.81
2023-05-23T02:23:20.384Z,78.22
2023-05-23T02:26:05.745Z,78.96
2023-05-23T02:28:51.304Z,79.25
2023-05-23T02:31:36.885Z,79.65
2023-05-23T02:34:22.459Z,79.74
2023-05-23T02:37:08.104Z,81.02
2023-05-23T02:39:56.283Z,82.44
2023-05-23T02:42:41.464Z,83.97
2023-05-23T02:45:26.979Z,84.22
2023-05-23T02:48:12.280Z,85.65
2023-05-23T02:50:57.924Z,86.82
2023-05-23T02:53:43.475Z,87.53
2023-05-23T02:56:29.211Z,88.30
2023-05-23T02:59:14.735Z,88.91
2023-05-23T03:02:00.640Z,88.31
2023-05-23T03:04:45.898Z,88.10
2023-05-23T03:07:31.283Z,88.32
2023-05-23T03:10:17.046Z,88.48
2023-05-23T03:13:03.140Z,88.81
2023-05-23T03:15:48.530Z,88.95
2023-05-23T03:18:33.647Z,89.19
2023-05-23T03:21:20.760Z,87.85
2023-05-23T03:24:06.670Z,86.79
2023-05-23T03:26:52.248Z,85.69
2023-05-23T03:29:37.995Z,85.44
2023-05-23T03:32:23.676Z,86.04
2023-05-23T03:35:09.754Z,86.28
2023-05-23T03:37:55.720Z,86.32
2023-05-23T03:40:40.990Z,85.95
2023-05-23T03:43:26.391Z,85.68
2023-05-23T03:46:12.087Z,86.50
2023-05-23T03:48:57.702Z,87.99
2023-05-23T03:51:43.384Z,87.78
2023-05-23T03:54:30.220Z,89.72
2023-05-23T03:57:15.784Z,88.89
2023-05-23T04:00:03.749Z,89.27
2023-05-23T04:02:49.566Z,90.04
2023-05-23T04:05:36.955Z,88.75
2023-05-23T04:08:22.240Z,88.46
2023-05-23T04:11:09.462Z,88.80
2023-05-23T04:13:56.564Z,89.16
2023-05-23T04:16:42.193Z,88.44
2023-05-23T04:19:27.879Z,85.71
2023-05-23T04:22:13.520Z,84.40
2023-05-23T04:24:58.788Z,83.72
2023-05-23T04:27:47.510Z,82.51
2023-05-23T04:30:33.233Z,82.00
2023-05-23T04:33:18.722Z,82.29
2023-05-23T04:36:05.207Z,81.77
2023-05-23T04:38:51.594Z,80.85
2023-05-23T04:41:38.909Z,82.10
2023-05-23T04:44:57.584Z,82.75
2023-05-23T04:48:01.716Z,81.87
2023-05-23T04:50:57.405Z,81.38
2023-05-23T04:53:42.932Z,81.44
2023-05-23T04:56:29.857Z,81.30
2023-05-23T04:59:15.774Z,81.33
2023-05-23T05:02:01.462Z,80.78
2023-05-23T05:04:47.508Z,81.22
2023-05-23T05:07:33.498Z,81.77
2023-05-23T05:10:20.542Z,81.17
2023-05-23T05:13:06.105Z,79.83
2023-05-23T05:16:01.108Z,79.91
2023-05-23T05:18:48.712Z,80.21
2023-05-23T05:21:34.168Z,79.62
2023-05-23T05:24:19.601Z,79.65
2023-05-23T05:27:05.957Z,78.71
2023-05-23T05:29:51.369Z,78.91
2023-05-23T05:32:36.581Z,78.71
2023-05-23T05:35:22.305Z,79.28
2023-05-23T05:38:07.845Z,79.36
2023-05-23T05:40:54.130Z,79.62
2023-05-23T05:43:43.270Z,79.92
2023-05-23T05:46:28.918Z,79.67
2023-05-23T05:49:15.067Z,80.49
2023-05-23T05:52:00.819Z,80.15
2023-05-23T05:54:46.081Z,81.01
2023-05-23T05:57:31.828Z,80.24
2023-05-23T06:00:18.697Z,79.64
2023-05-23T06:03:04.047Z,79.75
2023-05-23T06:05:56.438Z,79.91
2023-05-23T06:08:42.363Z,80.00
2023-05-23T06:11:30.785Z,80.20
2023-05-23T06:14:16.341Z,79.06
2023-05-23T06:17:05.080Z,80.93
2023-05-23T06:19:50.436Z,80.70
2023-05-23T06:22:36.063Z,81.54
2023-05-23T06:25:22.765Z,81.97
2023-05-23T06:28:08.980Z,80.98
2023-05-23T06:30:54.338Z,80.27
2023-05-23T06:33:39.818Z,79.84
2023-05-23T06:36:25.306Z,81.06
2023-05-23T06:39:10.698Z,82.24
2023-05-23T06:41:56.373Z,80.43
2023-05-23T06:44:41.669Z,79.29
2023-05-23T06:47:29.584Z,79.56
2023-05-23T06:50:14.905Z,79.75
2023-05-23T06:53:00.610Z,79.20
2023-05-23T06:55:46.077Z,78.89
2023-05-23T06:58:33.554Z,78.06
2023-05-23T07:01:20.417Z,77.46
2023-05-23T07:04:07.358Z,76.50
2023-05-23T07:06:53.730Z,77.02
2023-05-23T07:09:39.963Z,74.39
2023-05-23T07:12:30.566Z,74.61
2023-05-23T07:15:17.510Z,75.77
2023-05-23T07:18:13.407Z,74.48
2023-05-23T07:20:59.367Z,75.68
2023-05-23T07:23:45.203Z,75.27
2023-05-23T07:26:31.155Z,76.99
2023-05-23T07:29:16.561Z,76.81
2023-05-23T07:32:04.446Z,76.00
2023-05-23T07:34:50.002Z,76.25
2023-05-23T07:37:35.888Z,76.06
2023-05-23T07:40:22.274Z,75.96
2023-05-23T07:43:07.611Z,75.80
2023-05-23T07:45:53.169Z,75.61
2023-05-23T07:48:38.977Z,74.92
2023-05-23T07:51:24.479Z,75.39
2023-05-23T07:54:11.258Z,76.01
2023-05-23T07:56:59.366Z,76.22
2023-05-23T07:59:45.306Z,76.10
2023-05-23T08:02:31.059Z,75.90
2023-05-23T08:05:16.650Z,76.79
2023-05-23T08:08:02.154Z,76.41
2023-05-23T08:10:47.727Z,76.28
2023-05-23T08:13:40.573Z,77.38
2023-05-23T08:16:44.858Z,78.18
2023-05-23T08:19:36.177Z,78.37
2023-05-23T08:22:21.529Z,77.94
2023-05-23T08:25:07.675Z,76.87
2023-05-23T08:27:55.348Z,77.49
2023-05-23T08:31:09.886Z,77.95
2023-05-23T08:33:56.178Z,78.00
2023-05-23T08:36:41.501Z,77.66
2023-05-23T08:39:29.365Z,76.82
2023-05-23T08:42:34.535Z,76.95
2023-05-23T08:45:19.928Z,78.11
2023-05-23T08:48:08.979Z,77.88
2023-05-23T08:50:59.993Z,76.76
2023-05-23T08:53:48.129Z,76.99
2023-05-23T08:56:34.136Z,76.66
2023-05-23T08:59:20.427Z,75.99
2023-05-23T09:02:10.915Z,75.67
2023-05-23T09:04:56.607Z,76.86
2023-05-23T09:07:47.323Z,75.28
2023-05-23T09:10:32.959Z,75.77
2023-05-23T09:13:18.818Z,76.30
2023-05-23T09:16:07.088Z,77.88
2023-05-23T09:18:59.122Z,78.09
2023-05-23T09:21:47.299Z,78.28
2023-05-23T09:24:40.041Z,80.91
2023-05-23T09:27:27.201Z,81.25
2023-05-23T09:30:13.706Z,82.10
2023-05-23T09:33:02.920Z,81.99
2023-05-23T09:35:51.020Z,82.05
2023-05-23T09:38:40.788Z,81.88
2023-05-23T09:41:30.462Z,81.16
2023-05-23T09:44:23.191Z,81.66
2023-05-23T09:47:08.882Z,80.96
2023-05-23T09:49:54.532Z,81.84
2023-05-23T09:52:40.111Z,81.31
2023-05-23T09:55:25.847Z,80.58
2023-05-23T09:58:12.747Z,80.40
2023-05-23T10:01:00.302Z,81.29
2023-05-23T10:03:51.214Z,80.96
2023-05-23T10:06:48.868Z,79.28
2023-05-23T10:09:37.824Z,79.29
2023-05-23T10:12:32.078Z,78.28
2023-05-23T10:15:19.272Z,78.94
2023-05-23T10:18:18.249Z,78.46
2023-05-23T10:21:09.582Z,78.34
2023-05-23T10:23:55.260Z,78.37
2023-05-23T10:26:41.041Z,77.82
2023-05-23T10:29:27.138Z,77.57
2023-05-23T10:32:13.535Z,77.43
2023-05-23T10:35:28.555Z,78.26
2023-05-23T10:38:52.715Z,77.84
2023-05-23T10:41:51.444Z,76.09
2023-05-23T10:44:37.256Z,76.56
2023-05-23T10:47:28.524Z,76.83
2023-05-23T10:50:16.714Z,76.42
2023-05-23T10:53:04.391Z,76.91
2023-05-23T10:55:49.616Z,78.88
2023-05-23T10:58:37.079Z,79.92
2023-05-23T11:01:23.456Z,79.30
2023-05-23T11:04:12.456Z,80.02
2023-05-23T11:06:58.382Z,79.40
2023-05-23T11:10:08.397Z,79.14
2023-05-23T11:13:06.313Z,80.29
2023-05-23T11:15:51.955Z,82.42
2023-05-23T11:18:37.275Z,84.52
2023-05-23T11:21:22.940Z,83.88
2023-05-23T11:24:10.204Z,85.09
2023-05-23T11:26:58.867Z,85.49
2023-05-23T11:29:44.493Z,84.66
2023-05-23T11:32:31.664Z,86.78
2023-05-23T11:35:18.130Z,85.86
2023-05-23T11:38:07.121Z,85.37
2023-05-23T11:40:52.637Z,85.30
2023-05-23T11:43:38.118Z,86.38
2023-05-23T11:46:23.374Z,88.76
2023-05-23T11:49:12.169Z,89.52
2023-05-23T11:52:02.535Z,88.32
2023-05-23T11:54:48.228Z,88.15
2023-05-23T11:57:33.806Z,89.10
2023-05-23T12:00:19.739Z,89.17
2023-05-23T12:03:07.113Z,87.75
2023-05-23T12:05:52.636Z,88.08
2023-05-23T12:08:38.300Z,86.87
2023-05-23T12:11:25.288Z,85.91
2023-05-23T12:14:17.052Z,86.17
2023-05-23T12:17:05.928Z,83.31
2023-05-23T12:19:56.693Z,83.37
2023-05-23T12:22:42.479Z,82.58
2023-05-23T12:25:28.195Z,83.85
2023-05-23T12:28:13.699Z,83.99
2023-05-23T12:30:59.101Z,83.29
2023-05-23T12:33:46.036Z,82.05
2023-05-23T12:36:31.990Z,81.70
2023-05-23T12:39:24.836Z,79.85
2023-05-23T12:42:10.654Z,80.45
2023-05-23T12:44:55.882Z,79.46
2023-05-23T12:47:41.421Z,79.05
2023-05-23T12:50:26.770Z,81.03
2023-05-23T12:53:16.540Z,80.70
2023-05-23T12:56:01.788Z,79.38
2023-05-23T12:58:47.278Z,78.42
2023-05-23T13:01:34.774Z,79.15
2023-05-23T13:04:20.614Z,78.38
2023-05-23T13:07:05.835Z,78.59
2023-05-23T13:09:51.112Z,79.13
2023-05-23T13:12:36.722Z,78.24
2023-05-23T13:15:22.226Z,81.34
2023-05-23T13:18:08.881Z,80.37
2023-05-23T13:20:54.244Z,80.72
2023-05-23T13:23:39.541Z,80.09
2023-05-23T13:26:25.248Z,82.56
2023-05-23T13:29:10.665Z,84.13
2023-05-23T13:31:56.411Z,81.74
2023-05-23T13:34:42.236Z,80.84
2023-05-23T13:37:27.835Z,81.38
2023-05-23T13:40:17.659Z,81.40
2023-05-23T13:43:03.059Z,80.99
2023-05-23T13:45:48.196Z,82.87
2023-05-23T13:48:33.951Z,83.41
2023-05-23T13:51:22.915Z,82.88
2023-05-23T13:54:10.318Z,83.89
2023-05-23T13:57:00.498Z,84.40
2023-05-23T13:59:47.720Z,84.09
2023-05-23T14:02:33.577Z,82.86
2023-05-23T14:05:20.609Z,81.86
2023-05-23T14:08:07.025Z,83.00
2023-05-23T14:10:52.642Z,79.47
2023-05-23T14:13:40.868Z,80.37
2023-05-23T14:16:28.319Z,81.85
2023-05-23T14:19:13.829Z,82.21
2023-05-23T14:22:00.699Z,81.47
2023-05-23T14:24:46.696Z,86.06
2023-05-23T14:27:36.252Z,86.97
2023-05-23T14:30:21.623Z,80.76
2023-05-23T14:33:08.561Z,80.13
2023-05-23T14:35:56.045Z,81.99
2023-05-23T14:38:41.667Z,81.81
2023-05-23T14:41:27.245Z,82.39
2023-05-23T14:44:13.319Z,83.20
2023-05-23T14:46:58.706Z,81.84
2023-05-23T14:49:43.960Z,81.58
2023-05-23T14:52:29.115Z,80.93
2023-05-23T14:55:14.657Z,80.23
2023-05-23T14:58:00.037Z,80.00
2023-05-23T15:00:45.679Z,80.41
2023-05-23T15:03:31.333Z,78.64
2023-05-23T15:06:16.751Z,78.92
2023-05-23T15:09:02.485Z,76.90
2023-05-23T15:11:47.859Z,77.71
2023-05-23T15:14:33.489Z,77.46
2023-05-23T15:17:19.101Z,77.62
2023-05-23T15:20:07.053Z,78.13
2023-05-23T15:22:52.840Z,76.73
2023-05-23T15:25:49.556Z,77.07
2023-05-23T15:28:35.318Z,76.74
2023-05-23T15:31:20.592Z,77.38
2023-05-23T15:34:06.062Z,78.30
2023-05-23T15:36:51.564Z,76.36
2023-05-23T15:39:37.141Z,74.36
2023-05-23T15:42:22.399Z,75.61
2023-05-23T15:45:08.479Z,75.46
2023-05-23T15:47:53.852Z,75.78
2023-05-23T15:50:45.157Z,74.31
2023-05-23T15:53:40.092Z,74.51
2023-05-23T15:56:29.281Z,72.88
2023-05-23T15:59:15.050Z,72.71
2023-05-23T16:02:00.697Z,73.71
2023-05-23T16:04:45.859Z,73.29
2023-05-23T16:07:31.534Z,73.84
2023-05-23T16:10:17.285Z,72.61
2023-05-23T16:13:02.732Z,73.16
2023-05-23T16:15:48.370Z,72.99
2023-05-23T16:18:34.141Z,73.46
2023-05-23T16:21:19.496Z,71.49
2023-05-23T16:24:05.776Z,71.25
2023-05-23T16:26:51.589Z,71.20
2023-05-23T16:29:36.966Z,71.45
2023-05-23T16:32:22.522Z,70.20
2023-05-23T16:35:08.430Z,71.69
2023-05-23T16:37:53.664Z,72.44
2023-05-23T16:40:40.475Z,69.68
2023-05-23T16:43:33.550Z,70.02
2023-05-23T16:46:22.417Z,69.82
2023-05-23T16:49:10.292Z,68.35
2023-05-23T16:52:00.280Z,68.12
2023-05-23T16:54:52.703Z,67.65
2023-05-23T16:57:41.707Z,66.38
2023-05-23T17:00:28.706Z,67.28
2023-05-23T17:03:16.693Z,66.77
2023-05-23T17:06:06.758Z,66.87
2023-05-23T17:08:53.750Z,65.33
2023-05-23T17:11:48.380Z,64.69
2023-05-23T17:14:34.606Z,64.53
2023-05-23T17:17:22.460Z,63.50
2023-05-23T17:20:10.190Z,64.63
2023-05-23T17:22:58.667Z,63.03
2023-05-23T17:25:47.248Z,63.53
2023-05-23T17:28:36.457Z,62.89
2023-05-23T17:31:22.188Z,63.39
2023-05-23T17:34:10.940Z,64.31
2023-05-23T17:36:57.942Z,64.08
2023-05-23T17:39:54.606Z,63.23
2023-05-23T17:42:45.756Z,61.61
2023-05-23T17:45:32.341Z,63.50
2023-05-23T17:48:31.173Z,61.63
2023-05-23T17:51:26.740Z,62.52
2023-05-23T17:54:12.479Z,63.10
2023-05-23T17:57:01.283Z,62.56
2023-05-23T17:59:47.716Z,62.72
2023-05-23T18:02:45.397Z,62.53
2023-05-23T18:05:39.660Z,61.27
2023-05-23T18:08:28.976Z,62.34
2023-05-23T18:11:30.647Z,74.81
2023-05-23T18:14:16.280Z,68.59
2023-05-23T18:17:03.669Z,62.42
2023-05-23T18:20:02.078Z,65.42
2023-05-23T18:22:57.087Z,63.31
2023-05-23T18:25:44.892Z,65.81
2023-05-23T18:28:30.415Z,64.92
2023-05-23T18:31:15.993Z,62.99
2023-05-23T18:34:01.615Z,63.87
2023-05-23T18:36:46.990Z,62.88
2023-05-23T18:39:35.008Z,60.91
2023-05-23T18:42:21.709Z,60.98
2023-05-23T18:45:09.384Z,60.93
2023-05-23T18:47:54.736Z,57.39
2023-05-23T18:50:40.454Z,59.43
2023-05-23T18:53:25.995Z,60.31
2023-05-23T18:56:11.461Z,59.17
2023-05-23T18:58:56.714Z,59.21
2023-05-23T19:01:42.755Z,59.59
2023-05-23T19:04:28.279Z,59.57
2023-05-23T19:07:14.187Z,59.54
2023-05-23T19:09:59.867Z,58.65
2023-05-23T19:12:45.479Z,57.58
2023-05-23T19:15:30.717Z,58.41
2023-05-23T19:18:20.272Z,58.77
2023-05-23T19:21:05.978Z,58.78
2023-05-23T19:23:51.705Z,58.46
2023-05-23T19:26:37.212Z,56.27
2023-05-23T19:29:22.882Z,57.58
2023-05-23T19:32:08.541Z,55.12
2023-05-23T19:34:54.198Z,54.19
2023-05-23T19:37:39.367Z,54.52
2023-05-23T19:40:24.798Z,56.43
2023-05-23T19:43:10.372Z,56.06
2023-05-23T19:45:56.199Z,57.55
2023-05-23T19:48:41.939Z,57.54
2023-05-23T19:51:27.297Z,58.50
2023-05-23T19:54:12.945Z,58.65
2023-05-23T19:56:58.378Z,59.05
2023-05-23T19:59:44.123Z,58.95
2023-05-23T20:02:29.787Z,60.01
2023-05-23T20:05:15.231Z,60.18
2023-05-23T20:08:00.816Z,59.87
2023-05-23T20:10:46.471Z,60.65
2023-05-23T20:13:32.219Z,60.22
2023-05-23T20:16:18.026Z,59.91
2023-05-23T20:19:03.466Z,59.45
2023-05-23T20:21:49.040Z,59.48
2023-05-23T20:24:34.574Z,59.47
2023-05-23T20:27:20.393Z,60.41
2023-05-23T20:30:06.883Z,60.22
2023-05-23T20:32:52.393Z,60.58
2023-05-23T20:35:38.120Z,61.30
2023-05-23T20:38:23.534Z,61.41
2023-05-23T20:41:11.600Z,61.66
2023-05-23T20:43:57.261Z,61.00
2023-05-23T20:46:42.891Z,61.81
2023-05-23T20:49:28.363Z,62.52
2023-05-23T20:52:14.911Z,62.50
2023-05-23T20:55:00.538Z,62.21
2023-05-23T20:57:47.007Z,62.70
2023-05-23T21:00:32.456Z,62.34
2023-05-23T21:03:18.582Z,62.44
2023-05-23T21:06:04.314Z,63.55
2023-05-23T21:08:49.869Z,63.04
2023-05-23T21:11:35.005Z,63.56
2023-05-23T21:14:20.759Z,63.60
2023-05-23T21:17:06.288Z,63.61
2023-05-23T21:19:51.862Z,63.63
2023-05-23T21:22:37.772Z,64.25
2023-05-23T21:25:23.193Z,63.74
2023-05-23T21:28:08.711Z,63.30
2023-05-23T21:30:54.542Z,64.01
2023-05-23T21:33:40.024Z,64.05
2023-05-23T21:36:25.706Z,63.68
2023-05-23T21:39:11.194Z,63.74
2023-05-23T21:41:56.410Z,63.60
2023-05-23T21:44:41.655Z,63.90
2023-05-23T21:47:27.195Z,64.50
2023-05-23T21:50:12.296Z,64.50
2023-05-23T21:52:57.475Z,63.84
2023-05-23T21:55:42.921Z,63.95
2023-05-23T21:58:28.340Z,64.45
2023-05-23T22:01:14.151Z,63.97
2023-05-23T22:03:59.707Z,64.17
2023-05-23T22:06:45.031Z,64.71
2023-05-23T22:09:30.780Z,64.62
2023-05-23T22:12:16.053Z,65.07
2023-05-23T22:15:01.488Z,64.61
2023-05-23T22:17:46.819Z,64.21
2023-05-23T22:20:32.553Z,64.50
2023-05-23T22:23:18.032Z,65.12
2023-05-23T22:26:04.191Z,66.55
2023-05-23T22:28:49.952Z,66.50
2023-05-23T22:31:35.450Z,66.94
2023-05-23T22:34:20.719Z,66.68
2023-05-23T22:37:05.878Z,67.13
2023-05-23T22:39:51.057Z,68.30
2023-05-23T22:42:36.756Z,69.22
2023-05-23T22:45:22.167Z,69.40
2023-05-23T22:48:07.371Z,70.24
2023-05-23T22:50:53.126Z,70.32
2023-05-23T22:53:38.548Z,69.11
2023-05-23T22:56:23.762Z,69.82
2023-05-23T22:59:09.445Z,69.51
2023-05-23T23:01:55.016Z,71.25
2023-05-23T23:04:40.411Z,72.10
2023-05-23T23:07:25.855Z,71.92
2023-05-23T23:10:11.265Z,71.31
2023-05-23T23:12:56.841Z,70.62
2023-05-23T23:15:42.146Z,71.27
2023-05-23T23:18:27.394Z,71.10
2023-05-23T23:21:13.776Z,70.84
2023-05-23T23:23:59.329Z,70.37
2023-05-23T23:26:44.715Z,69.77
2023-05-23T23:29:30.043Z,69.93
2023-05-23T23:32:15.524Z,69.84
2023-05-23T23:35:01.210Z,70.70
2023-05-23T23:37:46.486Z,70.85
2023-05-23T23:40:32.032Z,70.90
2023-05-23T23:43:17.563Z,70.27
2023-05-23T23:46:03.101Z,69.84
2023-05-23T23:48:48.439Z,68.92
2023-05-23T23:51:34.049Z,69.55
2023-05-23T23:54:20.110Z,68.79
2023-05-23T23:57:05.784Z,69.24
2023-05-23T23:59:50.980Z,70.03
